sensor_id;sensor_type;location;lat;lon;timestamp;temperature;humidity
32536;DHT22;18974;50.838;4.636;2023-12-07T00:01:04;4.40;99.90
32536;DHT22;18974;50.838;4.636;2023-12-07T00:03:29;4.20;99.90
32536;DHT22;18974;50.838;4.636;2023-12-07T00:05:55;4.20;99.90
32536;DHT22;18974;50.838;4.636;2023-12-07T00:08:21;4.30;99.90
32536;DHT22;18974;50.838;4.636;2023-12-07T00:10:46;4.30;99.90
32536;DHT22;18974;50.838;4.636;2023-12-07T00:13:12;4.30;99.90
32536;DHT22;18974;50.838;4.636;2023-12-07T00:15:38;4.40;99.90
32536;DHT22;18974;50.838;4.636;2023-12-07T00:18:04;4.30;99.90
32536;DHT22;18974;50.838;4.636;2023-12-07T00:20:30;4.20;99.90
32536;DHT22;18974;50.838;4.636;2023-12-07T00:22:55;4.30;99.90
32536;DHT22;18974;50.838;4.636;2023-12-07T00:25:21;4.20;99.90
32536;DHT22;18974;50.838;4.636;2023-12-07T00:27:48;4.20;99.90
32536;DHT22;18974;50.838;4.636;2023-12-07T00:30:14;4.10;99.90
32536;DHT22;18974;50.838;4.636;2023-12-07T00:32:40;4.20;99.90
32536;DHT22;18974;50.838;4.636;2023-12-07T00:35:09;4.30;99.90
32536;DHT22;18974;50.838;4.636;2023-12-07T00:37:35;4.20;99.90
32536;DHT22;18974;50.838;4.636;2023-12-07T00:40:01;4.20;99.90
32536;DHT22;18974;50.838;4.636;2023-12-07T00:42:27;4.20;99.90
32536;DHT22;18974;50.838;4.636;2023-12-07T00:44:53;4.30;99.90
32536;DHT22;18974;50.838;4.636;2023-12-07T00:47:19;4.30;99.90
32536;DHT22;18974;50.838;4.636;2023-12-07T00:49:45;4.50;99.90
32536;DHT22;18974;50.838;4.636;2023-12-07T00:52:10;4.50;99.90
32536;DHT22;18974;50.838;4.636;2023-12-07T00:54:36;4.40;99.90
32536;DHT22;18974;50.838;4.636;2023-12-07T00:57:02;4.30;99.90
32536;DHT22;18974;50.838;4.636;2023-12-07T00:59:28;4.20;99.90
32536;DHT22;18974;50.838;4.636;2023-12-07T01:02:01;4.10;99.90
32536;DHT22;18974;50.838;4.636;2023-12-07T01:04:28;4.00;99.90
32536;DHT22;18974;50.838;4.636;2023-12-07T01:06:54;4.20;99.90
32536;DHT22;18974;50.838;4.636;2023-12-07T01:09:19;4.00;99.90
32536;DHT22;18974;50.838;4.636;2023-12-07T01:11:45;4.10;99.90
32536;DHT22;18974;50.838;4.636;2023-12-07T01:14:11;4.10;99.90
32536;DHT22;18974;50.838;4.636;2023-12-07T01:16:36;4.20;99.90
32536;DHT22;18974;50.838;4.636;2023-12-07T01:19:02;4.30;99.90
32536;DHT22;18974;50.838;4.636;2023-12-07T01:21:28;4.20;99.90
32536;DHT22;18974;50.838;4.636;2023-12-07T01:23:54;4.20;99.90
32536;DHT22;18974;50.838;4.636;2023-12-07T01:26:20;4.30;99.90
32536;DHT22;18974;50.838;4.636;2023-12-07T01:28:45;4.30;99.90
32536;DHT22;18974;50.838;4.636;2023-12-07T01:31:11;4.20;99.90
32536;DHT22;18974;50.838;4.636;2023-12-07T01:33:36;4.30;99.90
32536;DHT22;18974;50.838;4.636;2023-12-07T01:36:02;4.30;99.90
32536;DHT22;18974;50.838;4.636;2023-12-07T01:38:28;4.30;99.90
32536;DHT22;18974;50.838;4.636;2023-12-07T01:40:54;4.30;99.90
32536;DHT22;18974;50.838;4.636;2023-12-07T01:43:21;4.20;99.90
32536;DHT22;18974;50.838;4.636;2023-12-07T01:45:48;4.20;99.90
32536;DHT22;18974;50.838;4.636;2023-12-07T01:48:13;4.20;99.90
32536;DHT22;18974;50.838;4.636;2023-12-07T01:50:39;4.10;99.90
32536;DHT22;18974;50.838;4.636;2023-12-07T01:53:05;4.20;99.90
32536;DHT22;18974;50.838;4.636;2023-12-07T01:55:32;4.20;99.90
32536;DHT22;18974;50.838;4.636;2023-12-07T01:57:58;4.20;99.90
32536;DHT22;18974;50.838;4.636;2023-12-07T02:00:24;4.30;99.90
32536;DHT22;18974;50.838;4.636;2023-12-07T02:02:50;4.40;99.90
32536;DHT22;18974;50.838;4.636;2023-12-07T02:05:17;4.50;99.90
32536;DHT22;18974;50.838;4.636;2023-12-07T02:07:43;4.50;99.90
32536;DHT22;18974;50.838;4.636;2023-12-07T02:10:10;4.60;99.90
32536;DHT22;18974;50.838;4.636;2023-12-07T02:12:36;4.60;99.90
32536;DHT22;18974;50.838;4.636;2023-12-07T02:15:02;4.60;99.90
32536;DHT22;18974;50.838;4.636;2023-12-07T02:20:21;4.60;99.90
32536;DHT22;18974;50.838;4.636;2023-12-07T02:22:56;4.50;99.90
32536;DHT22;18974;50.838;4.636;2023-12-07T02:25:40;4.50;99.90
32536;DHT22;18974;50.838;4.636;2023-12-07T02:28:07;4.60;99.90
32536;DHT22;18974;50.838;4.636;2023-12-07T02:30:32;4.40;99.90
32536;DHT22;18974;50.838;4.636;2023-12-07T02:32:58;4.30;99.90
32536;DHT22;18974;50.838;4.636;2023-12-07T02:35:24;4.30;99.90
32536;DHT22;18974;50.838;4.636;2023-12-07T02:37:51;4.30;99.90
32536;DHT22;18974;50.838;4.636;2023-12-07T02:40:19;4.20;99.90
32536;DHT22;18974;50.838;4.636;2023-12-07T02:42:46;4.20;99.90
32536;DHT22;18974;50.838;4.636;2023-12-07T02:45:12;4.20;99.90
32536;DHT22;18974;50.838;4.636;2023-12-07T02:47:38;4.20;99.90
32536;DHT22;18974;50.838;4.636;2023-12-07T02:50:06;4.30;99.90
32536;DHT22;18974;50.838;4.636;2023-12-07T02:52:33;4.40;99.90
32536;DHT22;18974;50.838;4.636;2023-12-07T02:54:58;4.40;99.90
32536;DHT22;18974;50.838;4.636;2023-12-07T02:57:24;4.50;99.90
32536;DHT22;18974;50.838;4.636;2023-12-07T02:59:50;4.50;99.90
32536;DHT22;18974;50.838;4.636;2023-12-07T03:02:15;4.60;99.90
32536;DHT22;18974;50.838;4.636;2023-12-07T03:04:41;4.70;99.90
32536;DHT22;18974;50.838;4.636;2023-12-07T03:07:07;4.60;99.90
32536;DHT22;18974;50.838;4.636;2023-12-07T03:09:32;4.70;99.90
32536;DHT22;18974;50.838;4.636;2023-12-07T03:11:58;4.60;99.90
32536;DHT22;18974;50.838;4.636;2023-12-07T03:14:24;4.60;99.90
32536;DHT22;18974;50.838;4.636;2023-12-07T03:16:49;4.70;99.90
32536;DHT22;18974;50.838;4.636;2023-12-07T03:19:15;4.70;99.90
32536;DHT22;18974;50.838;4.636;2023-12-07T03:21:41;4.70;99.90
32536;DHT22;18974;50.838;4.636;2023-12-07T03:24:08;4.70;99.90
32536;DHT22;18974;50.838;4.636;2023-12-07T03:26:34;4.70;99.90
32536;DHT22;18974;50.838;4.636;2023-12-07T03:29:00;4.70;99.90
32536;DHT22;18974;50.838;4.636;2023-12-07T03:31:26;4.70;99.90
32536;DHT22;18974;50.838;4.636;2023-12-07T03:33:52;4.70;99.90
32536;DHT22;18974;50.838;4.636;2023-12-07T03:36:17;4.70;99.90
32536;DHT22;18974;50.838;4.636;2023-12-07T03:38:43;4.60;99.90
32536;DHT22;18974;50.838;4.636;2023-12-07T03:41:09;4.60;99.90
32536;DHT22;18974;50.838;4.636;2023-12-07T03:43:34;4.70;99.90
32536;DHT22;18974;50.838;4.636;2023-12-07T03:46:04;4.90;99.90
32536;DHT22;18974;50.838;4.636;2023-12-07T03:48:30;4.80;99.90
32536;DHT22;18974;50.838;4.636;2023-12-07T03:50:56;4.80;99.90
32536;DHT22;18974;50.838;4.636;2023-12-07T03:53:21;4.70;99.90
32536;DHT22;18974;50.838;4.636;2023-12-07T03:55:48;4.60;99.90
32536;DHT22;18974;50.838;4.636;2023-12-07T03:58:13;4.60;99.90
32536;DHT22;18974;50.838;4.636;2023-12-07T04:00:39;4.70;99.90
32536;DHT22;18974;50.838;4.636;2023-12-07T04:03:05;4.70;99.90
32536;DHT22;18974;50.838;4.636;2023-12-07T04:05:31;4.70;99.90
32536;DHT22;18974;50.838;4.636;2023-12-07T04:07:57;4.60;99.90
32536;DHT22;18974;50.838;4.636;2023-12-07T04:10:23;4.60;99.90
32536;DHT22;18974;50.838;4.636;2023-12-07T04:12:49;4.60;99.90
32536;DHT22;18974;50.838;4.636;2023-12-07T04:15:15;4.70;99.90
32536;DHT22;18974;50.838;4.636;2023-12-07T04:17:40;4.70;99.90
32536;DHT22;18974;50.838;4.636;2023-12-07T04:20:06;4.70;99.90
32536;DHT22;18974;50.838;4.636;2023-12-07T04:22:33;4.80;99.90
32536;DHT22;18974;50.838;4.636;2023-12-07T04:24:58;4.80;99.90
32536;DHT22;18974;50.838;4.636;2023-12-07T04:27:24;4.80;99.90
32536;DHT22;18974;50.838;4.636;2023-12-07T04:29:50;4.70;99.90
32536;DHT22;18974;50.838;4.636;2023-12-07T04:32:15;4.60;99.90
32536;DHT22;18974;50.838;4.636;2023-12-07T04:34:41;4.70;99.90
32536;DHT22;18974;50.838;4.636;2023-12-07T04:37:07;4.70;99.90
32536;DHT22;18974;50.838;4.636;2023-12-07T04:39:32;4.70;99.90
32536;DHT22;18974;50.838;4.636;2023-12-07T04:41:58;4.80;99.90
32536;DHT22;18974;50.838;4.636;2023-12-07T04:44:24;4.80;99.90
32536;DHT22;18974;50.838;4.636;2023-12-07T04:46:52;4.80;99.90
32536;DHT22;18974;50.838;4.636;2023-12-07T04:49:18;4.90;99.90
32536;DHT22;18974;50.838;4.636;2023-12-07T04:51:43;5.00;99.90
32536;DHT22;18974;50.838;4.636;2023-12-07T04:54:12;4.90;99.90
32536;DHT22;18974;50.838;4.636;2023-12-07T04:56:40;4.90;99.90
32536;DHT22;18974;50.838;4.636;2023-12-07T04:59:06;4.80;99.90
32536;DHT22;18974;50.838;4.636;2023-12-07T05:01:32;4.80;99.90
32536;DHT22;18974;50.838;4.636;2023-12-07T05:03:57;4.70;99.90
32536;DHT22;18974;50.838;4.636;2023-12-07T05:06:23;4.70;99.90
32536;DHT22;18974;50.838;4.636;2023-12-07T05:08:48;4.70;99.90
32536;DHT22;18974;50.838;4.636;2023-12-07T05:11:14;4.50;99.90
32536;DHT22;18974;50.838;4.636;2023-12-07T05:13:40;4.50;99.90
32536;DHT22;18974;50.838;4.636;2023-12-07T05:16:06;4.60;99.90
32536;DHT22;18974;50.838;4.636;2023-12-07T05:18:31;4.60;99.90
32536;DHT22;18974;50.838;4.636;2023-12-07T05:20:57;4.50;99.90
32536;DHT22;18974;50.838;4.636;2023-12-07T05:23:23;4.50;99.90
32536;DHT22;18974;50.838;4.636;2023-12-07T05:25:48;4.50;99.90
32536;DHT22;18974;50.838;4.636;2023-12-07T05:28:14;4.50;99.90
32536;DHT22;18974;50.838;4.636;2023-12-07T05:30:40;4.40;99.90
32536;DHT22;18974;50.838;4.636;2023-12-07T05:33:06;4.50;99.90
32536;DHT22;18974;50.838;4.636;2023-12-07T05:35:33;4.40;99.90
32536;DHT22;18974;50.838;4.636;2023-12-07T05:37:59;4.40;99.90
32536;DHT22;18974;50.838;4.636;2023-12-07T05:40:24;4.50;99.90
32536;DHT22;18974;50.838;4.636;2023-12-07T05:42:51;4.50;99.90
32536;DHT22;18974;50.838;4.636;2023-12-07T05:45:16;4.50;99.90
32536;DHT22;18974;50.838;4.636;2023-12-07T05:47:42;4.40;99.90
32536;DHT22;18974;50.838;4.636;2023-12-07T05:50:08;4.40;99.90
32536;DHT22;18974;50.838;4.636;2023-12-07T05:52:33;4.40;99.90
32536;DHT22;18974;50.838;4.636;2023-12-07T05:54:59;4.40;99.90
32536;DHT22;18974;50.838;4.636;2023-12-07T05:57:25;4.60;99.90
32536;DHT22;18974;50.838;4.636;2023-12-07T05:59:51;4.50;99.90
32536;DHT22;18974;50.838;4.636;2023-12-07T06:02:16;4.50;99.90
32536;DHT22;18974;50.838;4.636;2023-12-07T06:04:42;4.60;99.90
32536;DHT22;18974;50.838;4.636;2023-12-07T06:07:07;4.60;99.90
32536;DHT22;18974;50.838;4.636;2023-12-07T06:09:33;4.50;99.90
32536;DHT22;18974;50.838;4.636;2023-12-07T06:11:59;4.50;99.90
32536;DHT22;18974;50.838;4.636;2023-12-07T06:14:25;4.50;99.90
32536;DHT22;18974;50.838;4.636;2023-12-07T06:16:51;4.50;99.90
32536;DHT22;18974;50.838;4.636;2023-12-07T06:19:17;4.50;99.90
32536;DHT22;18974;50.838;4.636;2023-12-07T06:21:43;4.50;99.90
32536;DHT22;18974;50.838;4.636;2023-12-07T06:24:12;4.50;99.90
32536;DHT22;18974;50.838;4.636;2023-12-07T06:26:39;4.30;99.90
32536;DHT22;18974;50.838;4.636;2023-12-07T06:29:05;4.30;99.90
32536;DHT22;18974;50.838;4.636;2023-12-07T06:31:33;4.40;99.90
32536;DHT22;18974;50.838;4.636;2023-12-07T06:33:59;4.40;99.90
32536;DHT22;18974;50.838;4.636;2023-12-07T06:36:25;4.30;99.90
32536;DHT22;18974;50.838;4.636;2023-12-07T06:38:52;4.30;99.90
32536;DHT22;18974;50.838;4.636;2023-12-07T06:41:18;4.40;99.90
32536;DHT22;18974;50.838;4.636;2023-12-07T06:43:44;4.40;99.90
32536;DHT22;18974;50.838;4.636;2023-12-07T06:46:13;4.30;99.90
32536;DHT22;18974;50.838;4.636;2023-12-07T06:48:40;4.30;99.90
32536;DHT22;18974;50.838;4.636;2023-12-07T06:51:06;4.30;99.90
32536;DHT22;18974;50.838;4.636;2023-12-07T06:53:32;4.30;99.90
32536;DHT22;18974;50.838;4.636;2023-12-07T06:55:58;4.30;99.90
32536;DHT22;18974;50.838;4.636;2023-12-07T06:58:24;4.30;99.90
32536;DHT22;18974;50.838;4.636;2023-12-07T07:00:50;4.20;99.90
32536;DHT22;18974;50.838;4.636;2023-12-07T07:03:16;4.20;99.90
32536;DHT22;18974;50.838;4.636;2023-12-07T07:05:42;4.30;99.90
32536;DHT22;18974;50.838;4.636;2023-12-07T07:08:08;4.20;99.90
32536;DHT22;18974;50.838;4.636;2023-12-07T07:10:34;4.20;99.90
32536;DHT22;18974;50.838;4.636;2023-12-07T07:13:01;4.30;99.90
32536;DHT22;18974;50.838;4.636;2023-12-07T07:15:33;4.20;99.90
32536;DHT22;18974;50.838;4.636;2023-12-07T07:17:59;4.30;99.90
32536;DHT22;18974;50.838;4.636;2023-12-07T07:20:26;4.20;99.90
32536;DHT22;18974;50.838;4.636;2023-12-07T07:22:52;4.20;99.90
32536;DHT22;18974;50.838;4.636;2023-12-07T07:25:18;4.20;99.90
32536;DHT22;18974;50.838;4.636;2023-12-07T07:27:45;4.20;99.90
32536;DHT22;18974;50.838;4.636;2023-12-07T07:30:12;4.20;99.90
32536;DHT22;18974;50.838;4.636;2023-12-07T07:32:38;4.20;99.90
32536;DHT22;18974;50.838;4.636;2023-12-07T07:35:04;4.20;99.90
32536;DHT22;18974;50.838;4.636;2023-12-07T07:37:29;4.10;99.90
32536;DHT22;18974;50.838;4.636;2023-12-07T07:39:55;4.10;99.90
32536;DHT22;18974;50.838;4.636;2023-12-07T07:42:21;4.10;99.90
32536;DHT22;18974;50.838;4.636;2023-12-07T07:44:47;4.00;99.90
32536;DHT22;18974;50.838;4.636;2023-12-07T07:47:12;4.00;99.90
32536;DHT22;18974;50.838;4.636;2023-12-07T07:49:38;4.00;99.90
32536;DHT22;18974;50.838;4.636;2023-12-07T07:52:04;3.90;99.90
32536;DHT22;18974;50.838;4.636;2023-12-07T07:54:30;3.90;99.90
32536;DHT22;18974;50.838;4.636;2023-12-07T07:56:56;3.90;99.90
32536;DHT22;18974;50.838;4.636;2023-12-07T07:59:22;3.80;99.90
32536;DHT22;18974;50.838;4.636;2023-12-07T08:01:48;3.80;99.90
32536;DHT22;18974;50.838;4.636;2023-12-07T08:04:14;3.80;99.90
32536;DHT22;18974;50.838;4.636;2023-12-07T08:06:41;3.80;99.90
32536;DHT22;18974;50.838;4.636;2023-12-07T08:09:08;3.70;99.90
32536;DHT22;18974;50.838;4.636;2023-12-07T08:11:34;3.70;99.90
32536;DHT22;18974;50.838;4.636;2023-12-07T08:14:00;3.70;99.90
32536;DHT22;18974;50.838;4.636;2023-12-07T08:16:26;3.70;99.90
32536;DHT22;18974;50.838;4.636;2023-12-07T08:18:53;3.80;99.90
32536;DHT22;18974;50.838;4.636;2023-12-07T08:21:20;3.90;99.90
32536;DHT22;18974;50.838;4.636;2023-12-07T08:23:46;4.00;99.90
32536;DHT22;18974;50.838;4.636;2023-12-07T08:26:12;4.10;99.90
32536;DHT22;18974;50.838;4.636;2023-12-07T08:28:43;4.10;99.90
32536;DHT22;18974;50.838;4.636;2023-12-07T08:31:11;4.20;99.90
32536;DHT22;18974;50.838;4.636;2023-12-07T08:33:37;4.40;99.90
32536;DHT22;18974;50.838;4.636;2023-12-07T08:36:05;4.50;99.90
32536;DHT22;18974;50.838;4.636;2023-12-07T08:38:32;4.60;99.90
32536;DHT22;18974;50.838;4.636;2023-12-07T08:40:58;4.70;99.90
32536;DHT22;18974;50.838;4.636;2023-12-07T08:43:24;4.90;99.90
32536;DHT22;18974;50.838;4.636;2023-12-07T08:45:51;4.90;99.90
32536;DHT22;18974;50.838;4.636;2023-12-07T08:48:19;5.10;99.90
32536;DHT22;18974;50.838;4.636;2023-12-07T08:50:44;5.20;99.90
32536;DHT22;18974;50.838;4.636;2023-12-07T08:53:10;5.30;99.90
32536;DHT22;18974;50.838;4.636;2023-12-07T08:55:36;5.50;99.90
32536;DHT22;18974;50.838;4.636;2023-12-07T08:58:01;5.60;99.90
32536;DHT22;18974;50.838;4.636;2023-12-07T09:00:32;5.70;99.90
32536;DHT22;18974;50.838;4.636;2023-12-07T09:02:58;5.80;99.90
32536;DHT22;18974;50.838;4.636;2023-12-07T09:05:26;5.90;99.90
32536;DHT22;18974;50.838;4.636;2023-12-07T09:07:52;5.90;99.90
32536;DHT22;18974;50.838;4.636;2023-12-07T09:10:19;5.90;99.90
32536;DHT22;18974;50.838;4.636;2023-12-07T09:12:44;5.70;99.90
32536;DHT22;18974;50.838;4.636;2023-12-07T09:15:11;5.80;99.90
32536;DHT22;18974;50.838;4.636;2023-12-07T09:17:38;5.80;99.90
32536;DHT22;18974;50.838;4.636;2023-12-07T09:20:09;5.80;99.90
32536;DHT22;18974;50.838;4.636;2023-12-07T09:22:39;5.80;99.90
32536;DHT22;18974;50.838;4.636;2023-12-07T09:25:06;5.80;99.90
32536;DHT22;18974;50.838;4.636;2023-12-07T09:27:33;5.60;99.90
32536;DHT22;18974;50.838;4.636;2023-12-07T09:30:01;5.70;99.90
32536;DHT22;18974;50.838;4.636;2023-12-07T09:32:26;5.80;99.90
32536;DHT22;18974;50.838;4.636;2023-12-07T09:34:53;5.80;99.90
32536;DHT22;18974;50.838;4.636;2023-12-07T09:37:19;5.80;99.90
32536;DHT22;18974;50.838;4.636;2023-12-07T09:39:45;6.00;99.90
32536;DHT22;18974;50.838;4.636;2023-12-07T09:42:11;6.00;99.90
32536;DHT22;18974;50.838;4.636;2023-12-07T09:44:37;6.00;99.90
32536;DHT22;18974;50.838;4.636;2023-12-07T09:47:03;6.00;99.90
32536;DHT22;18974;50.838;4.636;2023-12-07T09:49:31;6.00;99.90
32536;DHT22;18974;50.838;4.636;2023-12-07T09:51:59;6.00;99.90
32536;DHT22;18974;50.838;4.636;2023-12-07T09:54:26;6.00;99.90
32536;DHT22;18974;50.838;4.636;2023-12-07T09:56:54;6.00;99.90
32536;DHT22;18974;50.838;4.636;2023-12-07T09:59:20;6.00;99.90
32536;DHT22;18974;50.838;4.636;2023-12-07T10:01:46;6.10;99.90
32536;DHT22;18974;50.838;4.636;2023-12-07T10:04:19;6.20;99.90
32536;DHT22;18974;50.838;4.636;2023-12-07T10:06:45;6.40;99.90
32536;DHT22;18974;50.838;4.636;2023-12-07T10:09:11;6.50;99.90
32536;DHT22;18974;50.838;4.636;2023-12-07T10:11:38;6.70;99.90
32536;DHT22;18974;50.838;4.636;2023-12-07T10:14:08;7.00;99.90
32536;DHT22;18974;50.838;4.636;2023-12-07T10:16:34;7.30;99.90
32536;DHT22;18974;50.838;4.636;2023-12-07T10:19:16;7.40;99.90
32536;DHT22;18974;50.838;4.636;2023-12-07T10:21:51;7.40;99.90
32536;DHT22;18974;50.838;4.636;2023-12-07T10:24:22;7.50;99.90
32536;DHT22;18974;50.838;4.636;2023-12-07T10:26:50;7.20;99.90
32536;DHT22;18974;50.838;4.636;2023-12-07T10:29:20;7.00;99.90
32536;DHT22;18974;50.838;4.636;2023-12-07T10:31:46;6.90;99.90
32536;DHT22;18974;50.838;4.636;2023-12-07T10:34:18;7.00;99.90
32536;DHT22;18974;50.838;4.636;2023-12-07T10:36:46;7.10;99.90
32536;DHT22;18974;50.838;4.636;2023-12-07T10:39:13;7.30;99.90
32536;DHT22;18974;50.838;4.636;2023-12-07T10:41:42;7.30;99.90
32536;DHT22;18974;50.838;4.636;2023-12-07T10:44:11;7.40;99.90
32536;DHT22;18974;50.838;4.636;2023-12-07T10:46:39;7.60;99.90
32536;DHT22;18974;50.838;4.636;2023-12-07T10:49:10;7.60;99.90
32536;DHT22;18974;50.838;4.636;2023-12-07T10:51:59;7.70;99.90
32536;DHT22;18974;50.838;4.636;2023-12-07T10:54:34;7.60;99.90
32536;DHT22;18974;50.838;4.636;2023-12-07T10:57:02;7.60;99.90
32536;DHT22;18974;50.838;4.636;2023-12-07T10:59:31;7.70;99.90
32536;DHT22;18974;50.838;4.636;2023-12-07T11:01:57;7.70;99.90
32536;DHT22;18974;50.838;4.636;2023-12-07T11:04:25;7.60;99.90
32536;DHT22;18974;50.838;4.636;2023-12-07T11:06:52;7.50;99.90
32536;DHT22;18974;50.838;4.636;2023-12-07T11:09:25;7.40;99.90
32536;DHT22;18974;50.838;4.636;2023-12-07T11:12:07;7.40;99.90
32536;DHT22;18974;50.838;4.636;2023-12-07T11:14:36;7.50;99.90
32536;DHT22;18974;50.838;4.636;2023-12-07T11:17:03;7.50;99.90
32536;DHT22;18974;50.838;4.636;2023-12-07T11:22:01;7.60;99.90
32536;DHT22;18974;50.838;4.636;2023-12-07T11:24:30;7.50;99.90
32536;DHT22;18974;50.838;4.636;2023-12-07T11:26:56;7.50;99.90
32536;DHT22;18974;50.838;4.636;2023-12-07T11:29:24;7.40;99.90
32536;DHT22;18974;50.838;4.636;2023-12-07T11:31:50;7.40;99.90
32536;DHT22;18974;50.838;4.636;2023-12-07T11:34:36;7.40;99.90
32536;DHT22;18974;50.838;4.636;2023-12-07T11:37:02;7.60;99.90
32536;DHT22;18974;50.838;4.636;2023-12-07T11:39:48;7.70;99.90
32536;DHT22;18974;50.838;4.636;2023-12-07T11:42:19;7.90;99.90
32536;DHT22;18974;50.838;4.636;2023-12-07T11:44:48;8.00;99.90
32536;DHT22;18974;50.838;4.636;2023-12-07T11:47:18;8.00;99.90
32536;DHT22;18974;50.838;4.636;2023-12-07T11:49:45;8.00;99.90
32536;DHT22;18974;50.838;4.636;2023-12-07T11:52:15;8.10;99.90
32536;DHT22;18974;50.838;4.636;2023-12-07T11:54:46;8.20;99.90
32536;DHT22;18974;50.838;4.636;2023-12-07T11:57:15;8.20;99.90
32536;DHT22;18974;50.838;4.636;2023-12-07T11:59:42;8.10;99.90
32536;DHT22;18974;50.838;4.636;2023-12-07T12:02:13;8.10;99.90
32536;DHT22;18974;50.838;4.636;2023-12-07T12:04:42;8.10;99.90
32536;DHT22;18974;50.838;4.636;2023-12-07T12:07:08;8.20;99.90
32536;DHT22;18974;50.838;4.636;2023-12-07T12:09:34;8.10;99.90
32536;DHT22;18974;50.838;4.636;2023-12-07T12:12:00;8.00;99.90
32536;DHT22;18974;50.838;4.636;2023-12-07T12:14:27;8.00;99.90
32536;DHT22;18974;50.838;4.636;2023-12-07T12:16:53;8.10;99.90
32536;DHT22;18974;50.838;4.636;2023-12-07T12:19:22;8.00;99.90
32536;DHT22;18974;50.838;4.636;2023-12-07T12:21:48;8.00;99.90
32536;DHT22;18974;50.838;4.636;2023-12-07T12:24:13;8.00;99.90
32536;DHT22;18974;50.838;4.636;2023-12-07T12:26:42;7.90;99.90
32536;DHT22;18974;50.838;4.636;2023-12-07T12:29:07;7.90;99.90
32536;DHT22;18974;50.838;4.636;2023-12-07T12:31:35;7.90;99.90
32536;DHT22;18974;50.838;4.636;2023-12-07T12:34:01;7.90;99.90
32536;DHT22;18974;50.838;4.636;2023-12-07T12:36:27;7.90;99.90
32536;DHT22;18974;50.838;4.636;2023-12-07T12:38:55;7.90;99.90
32536;DHT22;18974;50.838;4.636;2023-12-07T12:41:22;7.90;99.90
32536;DHT22;18974;50.838;4.636;2023-12-07T12:43:48;8.00;99.90
32536;DHT22;18974;50.838;4.636;2023-12-07T12:46:15;8.00;99.90
32536;DHT22;18974;50.838;4.636;2023-12-07T12:49:00;8.00;99.90
32536;DHT22;18974;50.838;4.636;2023-12-07T12:51:29;8.10;99.90
32536;DHT22;18974;50.838;4.636;2023-12-07T12:53:59;8.20;99.90
32536;DHT22;18974;50.838;4.636;2023-12-07T12:56:26;8.20;99.90
32536;DHT22;18974;50.838;4.636;2023-12-07T12:58:53;8.20;99.90
32536;DHT22;18974;50.838;4.636;2023-12-07T13:01:22;8.20;99.90
32536;DHT22;18974;50.838;4.636;2023-12-07T13:03:48;8.20;99.90
32536;DHT22;18974;50.838;4.636;2023-12-07T13:06:14;8.20;99.90
32536;DHT22;18974;50.838;4.636;2023-12-07T13:08:44;8.10;99.90
32536;DHT22;18974;50.838;4.636;2023-12-07T13:11:14;8.10;99.90
32536;DHT22;18974;50.838;4.636;2023-12-07T13:13:40;8.10;99.90
32536;DHT22;18974;50.838;4.636;2023-12-07T13:16:06;8.10;99.90
32536;DHT22;18974;50.838;4.636;2023-12-07T13:18:32;8.00;99.90
32536;DHT22;18974;50.838;4.636;2023-12-07T13:20:58;8.10;99.90
32536;DHT22;18974;50.838;4.636;2023-12-07T13:23:25;8.20;99.90
32536;DHT22;18974;50.838;4.636;2023-12-07T13:25:51;8.20;99.90
32536;DHT22;18974;50.838;4.636;2023-12-07T13:28:17;8.20;99.90
32536;DHT22;18974;50.838;4.636;2023-12-07T13:30:43;8.20;99.90
32536;DHT22;18974;50.838;4.636;2023-12-07T13:33:09;8.20;99.90
32536;DHT22;18974;50.838;4.636;2023-12-07T13:35:35;8.20;99.90
32536;DHT22;18974;50.838;4.636;2023-12-07T13:38:01;8.10;99.90
32536;DHT22;18974;50.838;4.636;2023-12-07T13:40:26;8.10;99.90
32536;DHT22;18974;50.838;4.636;2023-12-07T13:42:52;8.10;99.90
32536;DHT22;18974;50.838;4.636;2023-12-07T13:45:18;8.20;99.90
32536;DHT22;18974;50.838;4.636;2023-12-07T13:47:45;8.20;99.90
32536;DHT22;18974;50.838;4.636;2023-12-07T13:50:11;8.20;99.90
32536;DHT22;18974;50.838;4.636;2023-12-07T13:52:38;8.20;99.90
32536;DHT22;18974;50.838;4.636;2023-12-07T13:55:04;8.20;99.90
32536;DHT22;18974;50.838;4.636;2023-12-07T13:57:30;8.20;99.90
32536;DHT22;18974;50.838;4.636;2023-12-07T13:59:56;8.30;99.90
32536;DHT22;18974;50.838;4.636;2023-12-07T14:02:22;8.20;99.90
32536;DHT22;18974;50.838;4.636;2023-12-07T14:04:49;8.10;99.90
32536;DHT22;18974;50.838;4.636;2023-12-07T14:07:18;8.10;99.90
32536;DHT22;18974;50.838;4.636;2023-12-07T14:09:48;8.10;99.90
32536;DHT22;18974;50.838;4.636;2023-12-07T14:12:15;8.10;99.90
32536;DHT22;18974;50.838;4.636;2023-12-07T14:14:41;8.10;99.90
32536;DHT22;18974;50.838;4.636;2023-12-07T14:17:09;8.00;99.90
32536;DHT22;18974;50.838;4.636;2023-12-07T14:19:34;7.90;99.90
32536;DHT22;18974;50.838;4.636;2023-12-07T14:22:01;7.90;99.90
32536;DHT22;18974;50.838;4.636;2023-12-07T14:24:26;7.80;99.90
32536;DHT22;18974;50.838;4.636;2023-12-07T14:26:53;7.70;99.90
32536;DHT22;18974;50.838;4.636;2023-12-07T14:29:19;7.70;99.90
32536;DHT22;18974;50.838;4.636;2023-12-07T14:31:47;7.60;99.90
32536;DHT22;18974;50.838;4.636;2023-12-07T14:34:14;7.60;99.90
32536;DHT22;18974;50.838;4.636;2023-12-07T14:36:40;7.50;99.90
32536;DHT22;18974;50.838;4.636;2023-12-07T14:39:07;7.50;99.90
32536;DHT22;18974;50.838;4.636;2023-12-07T14:41:33;7.40;99.90
32536;DHT22;18974;50.838;4.636;2023-12-07T14:43:59;7.30;99.90
32536;DHT22;18974;50.838;4.636;2023-12-07T14:46:25;7.20;99.90
32536;DHT22;18974;50.838;4.636;2023-12-07T14:48:50;7.10;99.90
32536;DHT22;18974;50.838;4.636;2023-12-07T14:51:19;7.10;99.90
32536;DHT22;18974;50.838;4.636;2023-12-07T14:53:48;7.00;99.90
32536;DHT22;18974;50.838;4.636;2023-12-07T14:56:14;7.00;99.90
32536;DHT22;18974;50.838;4.636;2023-12-07T14:58:39;6.90;99.90
32536;DHT22;18974;50.838;4.636;2023-12-07T15:01:06;6.90;99.90
32536;DHT22;18974;50.838;4.636;2023-12-07T15:03:32;6.90;99.90
32536;DHT22;18974;50.838;4.636;2023-12-07T15:05:57;6.90;99.90
32536;DHT22;18974;50.838;4.636;2023-12-07T15:08:23;6.90;99.90
32536;DHT22;18974;50.838;4.636;2023-12-07T15:10:49;6.80;99.90
32536;DHT22;18974;50.838;4.636;2023-12-07T15:13:18;6.80;99.90
32536;DHT22;18974;50.838;4.636;2023-12-07T15:15:44;6.70;99.90
32536;DHT22;18974;50.838;4.636;2023-12-07T15:18:10;6.70;99.90
32536;DHT22;18974;50.838;4.636;2023-12-07T15:20:36;6.70;99.90
32536;DHT22;18974;50.838;4.636;2023-12-07T15:23:01;6.80;99.90
32536;DHT22;18974;50.838;4.636;2023-12-07T15:25:28;6.70;99.90
32536;DHT22;18974;50.838;4.636;2023-12-07T15:27:55;6.60;99.90
32536;DHT22;18974;50.838;4.636;2023-12-07T15:30:20;6.60;99.90
32536;DHT22;18974;50.838;4.636;2023-12-07T15:32:51;6.60;99.90
32536;DHT22;18974;50.838;4.636;2023-12-07T15:35:17;6.60;99.90
32536;DHT22;18974;50.838;4.636;2023-12-07T15:37:43;6.60;99.90
32536;DHT22;18974;50.838;4.636;2023-12-07T15:40:10;6.60;99.90
32536;DHT22;18974;50.838;4.636;2023-12-07T15:42:39;6.60;99.90
32536;DHT22;18974;50.838;4.636;2023-12-07T15:45:06;6.60;99.90
32536;DHT22;18974;50.838;4.636;2023-12-07T15:47:33;6.50;99.90